Time;durP1;ratioP1;P1;durP2;ratioP2;P2;SDS_P1;SDS_P2;PMS_P1;PMS_P2;Temp;Humidity;BMP_temperature;BMP_pressure;BME280_temperature;BME280_humidity;BME280_pressure;Samples;Min_cycle;Max_cycle;Signal;HPM_P1;HPM_P2
2022/03/24 00:01:30;;;;;;;11.33;8.20;;;;;;;;;;5067520;28;20449;-73
2022/03/24 00:03:56;;;;;;;15.67;8.00;;;;;;;;;;5064337;28;20465;-73
2022/03/24 00:06:22;;;;;;;12.37;7.60;;;;;;;;;;5068000;28;20926;-74
2022/03/24 00:08:48;;;;;;;12.70;8.00;;;;;;;;;;5068750;28;20836;-73
2022/03/24 00:11:14;;;;;;;8.53;7.80;;;;;;;;;;5066609;28;20883;-73
2022/03/24 00:13:40;;;;;;;11.73;9.83;;;;;;;;;;5069434;28;20487;-73
2022/03/24 00:16:07;;;;;;;13.20;9.80;;;;;;;;;;5069321;28;20955;-73
2022/03/24 00:18:34;;;;;;;9.57;8.57;;;;;;;;;;5068033;28;20440;-73
2022/03/24 00:21:00;;;;;;;10.77;9.70;;;;;;;;;;5069403;28;20495;-73
2022/03/24 00:23:26;;;;;;;11.63;9.10;;;;;;;;;;5066797;28;20480;-73
2022/03/24 00:25:52;;;;;;;15.27;9.87;;;;;;;;;;5068191;28;20872;-73
2022/03/24 00:28:18;;;;;;;17.50;9.73;;;;;;;;;;5065577;28;20446;-73
2022/03/24 00:30:44;;;;;;;10.47;9.43;;;;;;;;;;5066908;28;20469;-73
2022/03/24 00:33:11;;;;;;;12.57;9.27;;;;;;;;;;5048689;28;20507;-73
2022/03/24 00:35:37;;;;;;;10.33;8.60;;;;;;;;;;5060657;28;20425;-73
2022/03/24 00:38:05;;;;;;;14.20;9.80;;;;;;;;;;5058594;28;20794;-73
2022/03/24 00:40:32;;;;;;;10.40;9.10;;;;;;;;;;5061091;28;20437;-73
2022/03/24 00:42:59;;;;;;;12.10;9.57;;;;;;;;;;5066675;28;20890;-73
2022/03/24 00:45:25;;;;;;;18.00;10.50;;;;;;;;;;5066770;28;20433;-73
2022/03/24 00:47:51;;;;;;;13.47;9.87;;;;;;;;;;5065319;28;21252;-73
2022/03/24 00:50:18;;;;;;;17.07;8.93;;;;;;;;;;5066627;28;20432;-73
2022/03/24 00:52:45;;;;;;;12.70;9.07;;;;;;;;;;5047053;28;20460;-74
2022/03/24 00:55:12;;;;;;;13.90;9.57;;;;;;;;;;5060520;28;20819;-73
2022/03/24 00:57:39;;;;;;;10.60;8.50;;;;;;;;;;5067592;28;20505;-73
2022/03/24 01:00:06;;;;;;;10.30;9.20;;;;;;;;;;5046406;28;20799;-73
2022/03/24 01:02:32;;;;;;;9.70;8.70;;;;;;;;;;5066940;28;20441;-73
2022/03/24 01:05:01;;;;;;;8.37;7.50;;;;;;;;;;5064954;28;20449;-73
2022/03/24 01:07:28;;;;;;;8.90;8.00;;;;;;;;;;5049517;28;20441;-73
2022/03/24 01:09:54;;;;;;;9.63;8.33;;;;;;;;;;5064368;28;20497;-73
2022/03/24 01:12:20;;;;;;;12.20;7.90;;;;;;;;;;5063606;28;20530;-73
2022/03/24 01:14:46;;;;;;;9.60;8.17;;;;;;;;;;5065253;28;20858;-73
2022/03/24 01:17:15;;;;;;;9.40;8.23;;;;;;;;;;5063966;28;20437;-73
2022/03/24 01:19:41;;;;;;;11.27;8.23;;;;;;;;;;5068112;28;20940;-73
2022/03/24 01:22:07;;;;;;;9.30;7.13;;;;;;;;;;5067465;28;20979;-73
2022/03/24 01:24:37;;;;;;;9.80;7.73;;;;;;;;;;5067693;28;20524;-73
2022/03/24 01:27:04;;;;;;;9.87;8.63;;;;;;;;;;5066570;28;20434;-73
2022/03/24 01:29:30;;;;;;;7.80;7.00;;;;;;;;;;5065721;28;20425;-73
2022/03/24 01:31:57;;;;;;;10.67;8.10;;;;;;;;;;5065211;28;20460;-73
2022/03/24 01:34:24;;;;;;;8.27;7.47;;;;;;;;;;5064963;28;20477;-73
2022/03/24 01:36:50;;;;;;;12.07;7.90;;;;;;;;;;5066569;28;20465;-73
2022/03/24 01:39:16;;;;;;;12.00;8.30;;;;;;;;;;5049017;28;20437;-73
2022/03/24 01:41:45;;;;;;;7.90;7.30;;;;;;;;;;5066059;28;20805;-74
2022/03/24 01:44:12;;;;;;;9.60;8.60;;;;;;;;;;5068066;28;20461;-74
2022/03/24 01:46:39;;;;;;;7.90;7.20;;;;;;;;;;5045815;28;20458;-73
2022/03/24 01:49:05;;;;;;;8.80;7.27;;;;;;;;;;5058316;28;20474;-73
2022/03/24 01:51:31;;;;;;;8.80;8.03;;;;;;;;;;5066375;28;20464;-73
2022/03/24 01:53:59;;;;;;;9.27;8.47;;;;;;;;;;5065736;28;20484;-73
2022/03/24 01:56:26;;;;;;;10.70;7.90;;;;;;;;;;5065943;28;20921;-73
2022/03/24 01:58:52;;;;;;;13.57;8.37;;;;;;;;;;5067612;28;21185;-73
2022/03/24 02:01:29;;;;;;;7.90;7.23;;;;;;;;;;5066037;28;21044;-73
2022/03/24 02:03:56;;;;;;;8.30;7.37;;;;;;;;;;5064862;28;20444;-74
2022/03/24 02:06:22;;;;;;;13.97;8.40;;;;;;;;;;5066859;28;20440;-73
2022/03/24 02:08:48;;;;;;;8.90;7.03;;;;;;;;;;5063693;28;20731;-73
2022/03/24 02:11:14;;;;;;;10.23;7.80;;;;;;;;;;5066205;28;20422;-73
2022/03/24 02:13:40;;;;;;;9.23;8.40;;;;;;;;;;5065836;28;20539;-73
2022/03/24 02:16:11;;;;;;;7.63;6.87;;;;;;;;;;5067945;28;20426;-73
2022/03/24 02:18:37;;;;;;;8.90;8.00;;;;;;;;;;5067027;28;22470;-73
2022/03/24 02:21:03;;;;;;;12.87;6.90;;;;;;;;;;5070805;28;20483;-73
2022/03/24 02:23:29;;;;;;;14.13;8.10;;;;;;;;;;5067438;28;20963;-73
2022/03/24 02:25:56;;;;;;;8.13;7.53;;;;;;;;;;5068102;28;20829;-73
2022/03/24 02:28:22;;;;;;;7.57;6.90;;;;;;;;;;5050821;28;20476;-73
2022/03/24 02:30:50;;;;;;;8.97;8.27;;;;;;;;;;5065002;28;21008;-74
2022/03/24 02:33:20;;;;;;;9.87;8.60;;;;;;;;;;5068343;28;20515;-73
2022/03/24 02:35:46;;;;;;;9.00;8.20;;;;;;;;;;5069517;28;20537;-74
2022/03/24 02:38:13;;;;;;;9.13;8.23;;;;;;;;;;5049269;28;20446;-73
2022/03/24 02:40:39;;;;;;;9.40;8.00;;;;;;;;;;5068599;28;20426;-73
2022/03/24 02:43:05;;;;;;;13.77;7.97;;;;;;;;;;5065655;28;20929;-73
2022/03/24 02:45:31;;;;;;;9.87;8.33;;;;;;;;;;5067187;28;20438;-73
2022/03/24 02:47:57;;;;;;;9.80;7.90;;;;;;;;;;5068205;28;20433;-73
2022/03/24 02:50:23;;;;;;;8.27;7.57;;;;;;;;;;5067712;28;20928;-73
2022/03/24 02:52:49;;;;;;;7.57;6.87;;;;;;;;;;5052271;28;20807;-74
2022/03/24 02:55:15;;;;;;;9.40;8.00;;;;;;;;;;5067878;28;20449;-74
2022/03/24 02:57:41;;;;;;;12.23;9.10;;;;;;;;;;5063494;28;20993;-73
2022/03/24 03:00:08;;;;;;;8.63;7.80;;;;;;;;;;5070223;28;20437;-74
2022/03/24 03:02:34;;;;;;;8.20;7.50;;;;;;;;;;5047536;28;20440;-73
2022/03/24 03:05:03;;;;;;;9.70;8.80;;;;;;;;;;5066636;28;20457;-74
2022/03/24 03:07:30;;;;;;;9.17;8.10;;;;;;;;;;5062902;28;20545;-74
2022/03/24 03:09:56;;;;;;;9.10;8.30;;;;;;;;;;5065572;28;20526;-74
2022/03/24 03:12:22;;;;;;;8.70;7.80;;;;;;;;;;5063739;28;20578;-74
2022/03/24 03:14:48;;;;;;;10.13;8.00;;;;;;;;;;5050538;28;20445;-74
2022/03/24 03:17:15;;;;;;;8.00;7.33;;;;;;;;;;5067434;28;21165;-74
2022/03/24 03:19:43;;;;;;;9.13;8.40;;;;;;;;;;5067901;28;20430;-74
2022/03/24 03:22:10;;;;;;;12.27;8.97;;;;;;;;;;5067041;28;20421;-74
2022/03/24 03:24:39;;;;;;;12.87;8.83;;;;;;;;;;5068561;28;20952;-74
2022/03/24 03:27:05;;;;;;;10.00;9.00;;;;;;;;;;5061606;28;20454;-74
2022/03/24 03:29:32;;;;;;;8.77;7.97;;;;;;;;;;5065452;28;20442;-73
2022/03/24 03:31:58;;;;;;;9.63;8.37;;;;;;;;;;5067293;28;20843;-74
2022/03/24 03:34:24;;;;;;;12.70;8.93;;;;;;;;;;5060510;28;20490;-73
2022/03/24 03:36:52;;;;;;;11.47;9.37;;;;;;;;;;5065112;28;20445;-73
2022/03/24 03:39:18;;;;;;;19.33;9.40;;;;;;;;;;5051158;28;20480;-74
2022/03/24 03:41:45;;;;;;;10.07;8.67;;;;;;;;;;5068866;28;20833;-73
2022/03/24 03:44:11;;;;;;;12.20;9.33;;;;;;;;;;5066719;28;20434;-73
2022/03/24 03:46:37;;;;;;;9.67;8.13;;;;;;;;;;5059589;28;20585;-73
2022/03/24 03:49:07;;;;;;;9.57;8.57;;;;;;;;;;5057642;28;20481;-73
2022/03/24 03:51:34;;;;;;;11.50;9.20;;;;;;;;;;5054297;28;20804;-74
2022/03/24 03:54:00;;;;;;;10.10;9.17;;;;;;;;;;5066165;28;20489;-73
2022/03/24 03:56:26;;;;;;;11.63;8.50;;;;;;;;;;5059232;28;20524;-73
2022/03/24 03:58:52;;;;;;;8.87;8.00;;;;;;;;;;5055582;28;20536;-73
2022/03/24 04:01:20;;;;;;;9.90;8.90;;;;;;;;;;5065776;28;20949;-74
2022/03/24 04:03:48;;;;;;;11.60;8.70;;;;;;;;;;5065548;28;20862;-73
2022/03/24 04:06:14;;;;;;;10.60;8.77;;;;;;;;;;5061840;28;20453;-74
2022/03/24 04:08:42;;;;;;;12.47;9.20;;;;;;;;;;5057797;28;20929;-74
2022/03/24 04:11:09;;;;;;;17.43;9.20;;;;;;;;;;5067267;28;20453;-74
2022/03/24 04:13:36;;;;;;;13.23;9.17;;;;;;;;;;5047760;28;20527;-74
2022/03/24 04:16:03;;;;;;;10.93;8.90;;;;;;;;;;5065174;28;20445;-74
2022/03/24 04:18:29;;;;;;;12.53;10.23;;;;;;;;;;5052223;28;20457;-74
2022/03/24 04:20:56;;;;;;;8.87;8.17;;;;;;;;;;5049192;28;20426;-73
2022/03/24 04:23:23;;;;;;;12.90;10.57;;;;;;;;;;5064470;28;20453;-73
2022/03/24 04:25:49;;;;;;;10.20;8.47;;;;;;;;;;5053601;28;20988;-73
2022/03/24 04:28:15;;;;;;;9.60;8.70;;;;;;;;;;5055536;28;20450;-74
2022/03/24 04:30:45;;;;;;;10.23;8.53;;;;;;;;;;5066166;28;20476;-74
2022/03/24 04:33:11;;;;;;;9.00;8.10;;;;;;;;;;5065262;28;20489;-74
2022/03/24 04:35:37;;;;;;;8.90;8.00;;;;;;;;;;5065443;28;21066;-73
2022/03/24 04:38:04;;;;;;;12.47;8.63;;;;;;;;;;5063776;28;20826;-73
2022/03/24 04:40:30;;;;;;;10.50;8.73;;;;;;;;;;5049166;28;20441;-73
2022/03/24 04:42:57;;;;;;;9.43;8.27;;;;;;;;;;5066264;28;20456;-74
2022/03/24 04:45:26;;;;;;;13.13;8.23;;;;;;;;;;5056911;28;20487;-73
2022/03/24 04:47:52;;;;;;;8.93;8.17;;;;;;;;;;5061619;28;20433;-73
2022/03/24 04:50:18;;;;;;;9.87;8.80;;;;;;;;;;5062802;28;20453;-74
2022/03/24 04:52:45;;;;;;;9.80;7.50;;;;;;;;;;5065763;28;20556;-73
2022/03/24 04:55:11;;;;;;;11.80;8.43;;;;;;;;;;5060137;28;20509;-74
2022/03/24 04:57:37;;;;;;;9.17;7.93;;;;;;;;;;5049858;28;20434;-73
2022/03/24 05:00:04;;;;;;;8.67;7.93;;;;;;;;;;5068019;28;20467;-73
2022/03/24 05:02:30;;;;;;;8.77;7.93;;;;;;;;;;5067688;28;20433;-74
2022/03/24 05:04:56;;;;;;;10.97;7.33;;;;;;;;;;5063455;28;20447;-73
2022/03/24 05:07:22;;;;;;;8.60;7.90;;;;;;;;;;5058890;28;20480;-74
2022/03/24 05:09:53;;;;;;;18.13;10.60;;;;;;;;;;5067752;28;20455;-73
2022/03/24 05:12:19;;;;;;;14.47;9.70;;;;;;;;;;5064906;28;20826;-74
2022/03/24 05:14:45;;;;;;;11.47;9.00;;;;;;;;;;5066153;28;20440;-74
2022/03/24 05:17:12;;;;;;;13.63;10.67;;;;;;;;;;5060214;28;20805;-73
2022/03/24 05:19:39;;;;;;;19.50;10.33;;;;;;;;;;5067242;28;20825;-74
2022/03/24 05:22:05;;;;;;;14.67;10.90;;;;;;;;;;5057247;28;20440;-73
2022/03/24 05:24:31;;;;;;;17.37;12.07;;;;;;;;;;5052972;28;20473;-73
2022/03/24 05:26:57;;;;;;;13.17;9.13;;;;;;;;;;5063868;28;20468;-73
2022/03/24 05:29:23;;;;;;;10.80;8.63;;;;;;;;;;5061029;28;20438;-74
2022/03/24 05:31:50;;;;;;;8.73;8.00;;;;;;;;;;5064229;28;20441;-73
2022/03/24 05:34:16;;;;;;;8.37;7.80;;;;;;;;;;5066781;28;20507;-74
2022/03/24 05:36:42;;;;;;;15.50;8.70;;;;;;;;;;5065275;28;20936;-73
2022/03/24 05:39:08;;;;;;;8.10;7.27;;;;;;;;;;5057913;28;20438;-74
2022/03/24 05:41:36;;;;;;;8.60;7.80;;;;;;;;;;5068233;28;20462;-73
2022/03/24 05:44:06;;;;;;;10.50;8.17;;;;;;;;;;5046036;28;20437;-74
2022/03/24 05:46:32;;;;;;;9.73;8.73;;;;;;;;;;5063763;28;20949;-74
2022/03/24 05:48:58;;;;;;;11.87;8.83;;;;;;;;;;5056602;28;20459;-74
2022/03/24 05:51:24;;;;;;;12.90;9.20;;;;;;;;;;5065177;28;20454;-73
2022/03/24 05:53:50;;;;;;;12.37;8.00;;;;;;;;;;5065761;28;20608;-73
2022/03/24 05:56:16;;;;;;;8.90;8.00;;;;;;;;;;5068077;28;20504;-73
2022/03/24 05:58:42;;;;;;;13.93;9.57;;;;;;;;;;5060650;28;20866;-73
2022/03/24 06:01:09;;;;;;;8.93;8.20;;;;;;;;;;5071071;28;20437;-73
2022/03/24 06:03:35;;;;;;;21.33;7.97;;;;;;;;;;5069891;28;20795;-73
2022/03/24 06:06:01;;;;;;;11.70;8.63;;;;;;;;;;5067777;28;20468;-73
2022/03/24 06:08:27;;;;;;;11.67;8.80;;;;;;;;;;5062727;28;20452;-73
2022/03/24 06:10:53;;;;;;;14.10;9.10;;;;;;;;;;5065052;28;20437;-73
2022/03/24 06:13:20;;;;;;;15.07;9.50;;;;;;;;;;5071172;28;20489;-73
2022/03/24 06:15:50;;;;;;;16.07;8.90;;;;;;;;;;5051075;28;20500;-73
2022/03/24 06:18:16;;;;;;;22.73;9.27;;;;;;;;;;5065886;28;20449;-73
2022/03/24 06:20:43;;;;;;;12.50;8.80;;;;;;;;;;5070269;28;20468;-74
2022/03/24 06:23:09;;;;;;;12.83;9.90;;;;;;;;;;5068408;28;20440;-74
2022/03/24 06:25:39;;;;;;;18.07;11.63;;;;;;;;;;5067612;28;20433;-73
2022/03/24 06:28:05;;;;;;;18.83;12.07;;;;;;;;;;5066406;28;20531;-73
2022/03/24 06:30:31;;;;;;;82.83;35.27;;;;;;;;;;5059463;28;20461;-73
2022/03/24 06:32:58;;;;;;;83.17;36.97;;;;;;;;;;5051778;28;20560;-73
2022/03/24 06:35:24;;;;;;;103.60;45.73;;;;;;;;;;5068564;28;20441;-74
2022/03/24 06:37:51;;;;;;;45.77;20.87;;;;;;;;;;5046300;28;20489;-74
2022/03/24 06:40:17;;;;;;;34.80;15.73;;;;;;;;;;5069638;28;20544;-73
2022/03/24 06:42:43;;;;;;;19.43;10.80;;;;;;;;;;5068281;28;20440;-74
2022/03/24 06:45:10;;;;;;;12.80;10.00;;;;;;;;;;5069827;28;20444;-73
2022/03/24 06:47:36;;;;;;;19.77;11.27;;;;;;;;;;5066000;28;20470;-73
2022/03/24 06:50:03;;;;;;;15.37;9.77;;;;;;;;;;5065361;28;20434;-73
2022/03/24 06:52:29;;;;;;;13.60;10.07;;;;;;;;;;5069507;28;20434;-73
2022/03/24 06:54:55;;;;;;;16.30;10.80;;;;;;;;;;5052046;28;20468;-73
2022/03/24 06:57:21;;;;;;;25.50;13.20;;;;;;;;;;5041986;28;20469;-73
2022/03/24 06:59:47;;;;;;;19.67;11.77;;;;;;;;;;5066551;28;20491;-73
2022/03/24 07:02:14;;;;;;;35.63;18.50;;;;;;;;;;5059747;28;20791;-73
2022/03/24 07:04:39;;;;;;;29.87;15.60;;;;;;;;;;5064440;28;20452;-73
2022/03/24 07:07:06;;;;;;;56.37;27.23;;;;;;;;;;5062811;28;20851;-73
2022/03/24 07:09:32;;;;;;;50.90;24.63;;;;;;;;;;5051968;28;20434;-73
2022/03/24 07:11:58;;;;;;;32.10;19.23;;;;;;;;;;5059566;28;20448;-73
2022/03/24 07:14:25;;;;;;;38.90;20.23;;;;;;;;;;5058690;28;20538;-74
2022/03/24 07:16:52;;;;;;;36.60;19.83;;;;;;;;;;5066680;28;20937;-73
2022/03/24 07:19:19;;;;;;;28.00;17.10;;;;;;;;;;5070019;28;20482;-73
2022/03/24 07:21:46;;;;;;;22.43;14.67;;;;;;;;;;5058863;28;20945;-73
2022/03/24 07:24:12;;;;;;;21.17;14.93;;;;;;;;;;5028542;28;20821;-73
2022/03/24 07:26:38;;;;;;;21.60;14.63;;;;;;;;;;5059872;28;20450;-74
2022/03/24 07:29:04;;;;;;;18.03;12.87;;;;;;;;;;5060175;28;20587;-74
2022/03/24 07:31:31;;;;;;;20.00;13.50;;;;;;;;;;5063198;28;21068;-74
2022/03/24 07:34:01;;;;;;;17.60;12.83;;;;;;;;;;5069110;28;20518;-73
2022/03/24 07:36:38;;;;;;;23.60;14.37;;;;;;;;;;5066471;28;20436;-73
2022/03/24 07:39:05;;;;;;;20.63;12.57;;;;;;;;;;5057440;28;20529;-74
2022/03/24 07:41:32;;;;;;;16.33;11.93;;;;;;;;;;5061299;28;20468;-73
2022/03/24 07:43:58;;;;;;;19.87;12.73;;;;;;;;;;5059810;28;20442;-73
2022/03/24 07:46:24;;;;;;;17.27;12.90;;;;;;;;;;5057836;28;20441;-73
2022/03/24 07:48:51;;;;;;;26.30;13.10;;;;;;;;;;5064101;28;20445;-74
2022/03/24 07:51:18;;;;;;;18.83;12.80;;;;;;;;;;5057048;28;20440;-73
2022/03/24 07:53:52;;;;;;;18.40;13.30;;;;;;;;;;5042690;28;20501;-73
2022/03/24 07:56:19;;;;;;;14.60;13.10;;;;;;;;;;5063317;28;20808;-73
2022/03/24 07:58:45;;;;;;;18.90;12.77;;;;;;;;;;5066978;28;20440;-74
2022/03/24 08:01:12;;;;;;;19.60;13.43;;;;;;;;;;5043841;28;20425;-73
2022/03/24 08:03:38;;;;;;;15.40;13.20;;;;;;;;;;5065308;28;20449;-73
2022/03/24 08:06:04;;;;;;;23.87;14.00;;;;;;;;;;5060094;28;20756;-73
2022/03/24 08:08:30;;;;;;;21.37;14.17;;;;;;;;;;5058922;28;20460;-73
2022/03/24 08:10:57;;;;;;;27.80;14.17;;;;;;;;;;5065864;28;21015;-76
2022/03/24 08:13:23;;;;;;;22.70;15.53;;;;;;;;;;5055813;28;20522;-73
2022/03/24 08:15:50;;;;;;;29.83;15.00;;;;;;;;;;5062651;28;20433;-72
2022/03/24 08:18:16;;;;;;;16.27;12.87;;;;;;;;;;5067969;28;20441;-73
2022/03/24 08:20:43;;;;;;;29.35;17.60;;;;;;;;;;5061880;28;20433;-73
2022/03/24 08:23:10;;;;;;;22.97;15.80;;;;;;;;;;5059137;28;21031;-73
2022/03/24 08:25:37;;;;;;;23.87;13.90;;;;;;;;;;5062344;28;20490;-73
2022/03/24 08:28:03;;;;;;;23.47;15.17;;;;;;;;;;5066665;28;20515;-73
2022/03/24 08:30:29;;;;;;;21.93;14.37;;;;;;;;;;5063186;28;20480;-73
2022/03/24 08:32:55;;;;;;;24.40;14.90;;;;;;;;;;5064819;28;20473;-73
2022/03/24 08:35:21;;;;;;;25.73;16.73;;;;;;;;;;5066527;28;20516;-73
2022/03/24 08:37:47;;;;;;;21.33;14.70;;;;;;;;;;5066989;28;20917;-74
2022/03/24 08:40:13;;;;;;;24.20;15.77;;;;;;;;;;5064830;28;20906;-72
2022/03/24 08:42:40;;;;;;;20.70;14.50;;;;;;;;;;5064538;28;20445;-73
2022/03/24 08:45:10;;;;;;;26.07;15.67;;;;;;;;;;5056784;28;20532;-73
2022/03/24 08:47:36;;;;;;;20.77;15.37;;;;;;;;;;5059493;28;20425;-69
2022/03/24 08:50:06;;;;;;;24.13;15.03;;;;;;;;;;5058039;28;20457;-72
2022/03/24 08:52:32;;;;;;;19.70;14.60;;;;;;;;;;5060071;28;20550;-73
2022/03/24 08:54:58;;;;;;;26.50;16.60;;;;;;;;;;5066033;28;20434;-72
2022/03/24 08:57:27;;;;;;;25.60;15.10;;;;;;;;;;5067591;28;20548;-66
2022/03/24 08:59:56;;;;;;;27.13;14.50;;;;;;;;;;5059371;28;20434;-72
2022/03/24 09:02:23;;;;;;;19.73;12.37;;;;;;;;;;5048874;28;20439;-72
2022/03/24 09:04:49;;;;;;;20.10;13.33;;;;;;;;;;5046745;28;20439;-72
2022/03/24 09:07:15;;;;;;;22.37;12.83;;;;;;;;;;5064776;28;20421;-64
2022/03/24 09:09:43;;;;;;;15.20;12.30;;;;;;;;;;5067967;28;20458;-73
2022/03/24 09:12:09;;;;;;;19.07;13.60;;;;;;;;;;5068709;28;20417;-73
2022/03/24 09:14:36;;;;;;;32.80;14.50;;;;;;;;;;5063492;28;21047;-73
2022/03/24 09:17:02;;;;;;;18.00;13.90;;;;;;;;;;5065693;28;20437;-73
2022/03/24 09:19:29;;;;;;;33.00;14.67;;;;;;;;;;5057973;28;20453;-73
2022/03/24 09:21:54;;;;;;;22.07;14.30;;;;;;;;;;5048385;28;20437;-73
2022/03/24 09:24:21;;;;;;;27.07;15.43;;;;;;;;;;5062882;28;20454;-73
2022/03/24 09:26:47;;;;;;;25.60;14.57;;;;;;;;;;5064496;28;20528;-73
2022/03/24 09:29:13;;;;;;;21.40;14.43;;;;;;;;;;5064421;28;20453;-73
2022/03/24 09:31:39;;;;;;;18.53;13.33;;;;;;;;;;5067505;28;20518;-73
2022/03/24 09:34:05;;;;;;;24.57;15.80;;;;;;;;;;5055300;28;20481;-73
2022/03/24 09:36:31;;;;;;;22.23;14.50;;;;;;;;;;5071883;28;20486;-73
2022/03/24 09:38:57;;;;;;;22.60;14.23;;;;;;;;;;5072222;28;20437;-73
2022/03/24 09:41:27;;;;;;;26.90;15.80;;;;;;;;;;5069466;28;20527;-73
2022/03/24 09:43:53;;;;;;;22.73;14.67;;;;;;;;;;5043695;28;20846;-73
2022/03/24 09:46:20;;;;;;;21.70;13.07;;;;;;;;;;5042589;28;20437;-72
2022/03/24 09:48:46;;;;;;;19.67;14.10;;;;;;;;;;5042488;28;20445;-72
2022/03/24 09:51:14;;;;;;;27.33;15.03;;;;;;;;;;5067335;28;20489;-73
2022/03/24 09:53:41;;;;;;;22.33;14.97;;;;;;;;;;5051599;28;20513;-72
2022/03/24 09:56:08;;;;;;;24.80;14.50;;;;;;;;;;5068581;28;20486;-73
2022/03/24 09:58:34;;;;;;;22.37;14.50;;;;;;;;;;5059861;28;20445;-73
2022/03/24 10:01:01;;;;;;;19.37;14.43;;;;;;;;;;5066891;28;20470;-73
2022/03/24 10:03:27;;;;;;;32.20;15.17;;;;;;;;;;5068158;28;20814;-73
2022/03/24 10:05:57;;;;;;;19.37;13.37;;;;;;;;;;5047738;28;20438;-73
2022/03/24 10:08:24;;;;;;;25.07;16.17;;;;;;;;;;5062522;28;20532;-73
2022/03/24 10:10:50;;;;;;;26.53;14.60;;;;;;;;;;5051121;28;20433;-73
2022/03/24 10:13:40;;;;;;;22.57;15.40;;;;;;;;;;5069500;28;20495;-73
2022/03/24 10:16:06;;;;;;;23.73;14.30;;;;;;;;;;5070195;28;20482;-72
2022/03/24 10:18:32;;;;;;;24.70;15.63;;;;;;;;;;5063069;28;20449;-72
2022/03/24 10:21:03;;;;;;;31.73;16.17;;;;;;;;;;5044366;28;20437;-73
2022/03/24 10:23:33;;;;;;;41.17;19.33;;;;;;;;;;5053435;28;20441;-73
2022/03/24 10:26:05;;;;;;;25.17;15.23;;;;;;;;;;5069786;28;20970;-73
2022/03/24 10:28:31;;;;;;;28.37;15.80;;;;;;;;;;5065702;28;20436;-73
2022/03/24 10:30:59;;;;;;;23.33;15.30;;;;;;;;;;5069098;28;20481;-72
2022/03/24 10:33:29;;;;;;;28.23;14.20;;;;;;;;;;5071094;28;20468;-73
2022/03/24 10:36:15;;;;;;;27.70;14.60;;;;;;;;;;5071248;28;20448;-73
2022/03/24 10:38:51;;;;;;;22.60;15.47;;;;;;;;;;5069989;28;20452;-73
2022/03/24 10:41:21;;;;;;;23.70;15.40;;;;;;;;;;5059275;28;20503;-73
2022/03/24 10:43:51;;;;;;;30.77;16.30;;;;;;;;;;5070687;28;20422;-73
2022/03/24 10:46:21;;;;;;;23.73;15.07;;;;;;;;;;5070652;28;20445;-72
2022/03/24 10:48:48;;;;;;;23.20;13.93;;;;;;;;;;5068686;28;20492;-72
2022/03/24 10:51:23;;;;;;;21.87;13.93;;;;;;;;;;5063004;28;22227;-73
2022/03/24 10:53:49;;;;;;;20.73;14.13;;;;;;;;;;5071401;28;20517;-73
2022/03/24 10:56:31;;;;;;;35.80;16.13;;;;;;;;;;5069046;28;20465;-73
2022/03/24 10:59:00;;;;;;;25.37;16.67;;;;;;;;;;5067575;28;20446;-73
2022/03/24 11:01:27;;;;;;;25.57;15.90;;;;;;;;;;5068708;28;20932;-73
2022/03/24 11:03:53;;;;;;;28.20;15.07;;;;;;;;;;5064759;28;20441;-73
2022/03/24 11:06:20;;;;;;;25.83;17.20;;;;;;;;;;5066640;28;20492;-73
2022/03/24 11:08:56;;;;;;;25.50;16.80;;;;;;;;;;5067335;28;20449;-73
2022/03/24 11:11:23;;;;;;;20.33;13.40;;;;;;;;;;5065545;28;20449;-73
2022/03/24 11:13:49;;;;;;;27.23;17.50;;;;;;;;;;5066097;28;20495;-73
2022/03/24 11:16:17;;;;;;;27.73;16.23;;;;;;;;;;5069279;28;20421;-73
2022/03/24 11:18:43;;;;;;;20.80;15.40;;;;;;;;;;5052386;28;20410;-73
2022/03/24 11:21:30;;;;;;;28.90;14.17;;;;;;;;;;5070847;28;20471;-72
2022/03/24 11:23:56;;;;;;;28.73;13.30;;;;;;;;;;5070615;28;20830;-72
2022/03/24 11:26:23;;;;;;;24.83;14.30;;;;;;;;;;5071378;28;20440;-72
2022/03/24 11:28:50;;;;;;;21.07;13.50;;;;;;;;;;5063903;28;20828;-73
2022/03/24 11:31:17;;;;;;;22.33;13.70;;;;;;;;;;5067865;28;20539;-73
2022/03/24 11:33:47;;;;;;;21.53;14.50;;;;;;;;;;5050830;28;20584;-74
2022/03/24 11:36:14;;;;;;;24.33;14.37;;;;;;;;;;5070956;28;20764;-74
2022/03/24 11:38:40;;;;;;;23.47;13.27;;;;;;;;;;5069970;28;20758;-74
2022/03/24 11:41:27;;;;;;;25.50;14.80;;;;;;;;;;5067964;28;20433;-74
2022/03/24 11:43:55;;;;;;;19.37;13.13;;;;;;;;;;5050186;28;20745;-74
2022/03/24 11:46:29;;;;;;;16.93;13.33;;;;;;;;;;5068805;28;20466;-75
2022/03/24 11:49:14;;;;;;;25.20;15.63;;;;;;;;;;5070305;28;20786;-75
2022/03/24 11:51:40;;;;;;;20.73;13.60;;;;;;;;;;5046873;28;20433;-75
2022/03/24 11:54:07;;;;;;;24.10;12.83;;;;;;;;;;5070604;28;20539;-75
2022/03/24 11:56:35;;;;;;;25.57;14.37;;;;;;;;;;5068477;28;20560;-75
2022/03/24 11:59:01;;;;;;;34.37;14.70;;;;;;;;;;5065147;28;20445;-74
2022/03/24 12:01:33;;;;;;;21.20;13.70;;;;;;;;;;5069448;28;20413;-74
2022/03/24 12:04:00;;;;;;;23.17;15.10;;;;;;;;;;5068350;28;20499;-75
2022/03/24 12:09:12;;;;;;;20.97;14.00;;;;;;;;;;5056944;28;20797;-73
2022/03/24 12:11:42;;;;;;;20.87;15.43;;;;;;;;;;5061401;28;20438;-74
2022/03/24 12:14:10;;;;;;;26.87;15.30;;;;;;;;;;5061609;28;21003;-74
2022/03/24 12:16:43;;;;;;;19.57;14.10;;;;;;;;;;5062470;28;20422;-74
2022/03/24 12:19:28;;;;;;;21.57;15.07;;;;;;;;;;5064671;28;20422;-74
2022/03/24 12:21:56;;;;;;;24.87;15.20;;;;;;;;;;5050290;28;20429;-74
2022/03/24 12:24:22;;;;;;;23.70;14.40;;;;;;;;;;5063170;28;20468;-74
2022/03/24 12:26:53;;;;;;;14.23;8.50;;;;;;;;;;5063740;28;21264;-74
2022/03/24 12:29:22;;;;;;;21.30;13.00;;;;;;;;;;5062318;28;20445;-74
2022/03/24 12:31:55;;;;;;;19.83;13.67;;;;;;;;;;5066141;28;20466;-74
2022/03/24 12:34:21;;;;;;;37.60;15.93;;;;;;;;;;5066430;28;20485;-75
2022/03/24 12:36:48;;;;;;;21.30;14.57;;;;;;;;;;5066493;28;20477;-73
2022/03/24 12:39:30;;;;;;;16.10;11.70;;;;;;;;;;5068237;28;20429;-74
2022/03/24 12:42:06;;;;;;;18.67;13.40;;;;;;;;;;5064607;28;20486;-74
2022/03/24 12:44:48;;;;;;;21.83;14.13;;;;;;;;;;5066252;28;20460;-74
2022/03/24 12:47:34;;;;;;;22.70;13.63;;;;;;;;;;5067204;28;20430;-73
2022/03/24 12:50:07;;;;;;;25.27;14.80;;;;;;;;;;5067540;28;20433;-75
2022/03/24 12:52:50;;;;;;;32.17;16.33;;;;;;;;;;5049140;28;20979;-73
2022/03/24 12:55:23;;;;;;;24.70;14.20;;;;;;;;;;5067023;28;20437;-73
2022/03/24 12:58:01;;;;;;;22.17;14.40;;;;;;;;;;5066501;28;21013;-73
2022/03/24 13:00:30;;;;;;;14.43;10.33;;;;;;;;;;5043955;28;20886;-74
2022/03/24 13:02:56;;;;;;;21.40;15.10;;;;;;;;;;5065857;28;20479;-74
2022/03/24 13:05:24;;;;;;;22.40;13.63;;;;;;;;;;5067232;28;20436;-74
2022/03/24 13:07:52;;;;;;;20.60;13.67;;;;;;;;;;5067119;28;20463;-74
2022/03/24 13:10:19;;;;;;;15.50;12.73;;;;;;;;;;5065918;28;20421;-73
2022/03/24 13:12:46;;;;;;;23.40;14.33;;;;;;;;;;5062916;28;20437;-75
2022/03/24 13:15:21;;;;;;;20.40;14.20;;;;;;;;;;5066239;28;20994;-74
2022/03/24 13:17:48;;;;;;;14.07;11.10;;;;;;;;;;5066171;28;20758;-74
2022/03/24 13:20:15;;;;;;;17.80;11.63;;;;;;;;;;5064141;28;20445;-75
2022/03/24 13:22:41;;;;;;;16.63;11.67;;;;;;;;;;5065938;28;20983;-74
2022/03/24 13:25:10;;;;;;;12.67;9.83;;;;;;;;;;5065711;28;20503;-74
2022/03/24 13:27:38;;;;;;;15.13;12.70;;;;;;;;;;5066966;28;20481;-74
2022/03/24 13:30:17;;;;;;;24.67;13.83;;;;;;;;;;5066962;28;20968;-74
2022/03/24 13:32:45;;;;;;;22.57;12.50;;;;;;;;;;5067610;28;20463;-74
2022/03/24 13:35:16;;;;;;;15.37;13.00;;;;;;;;;;5066308;28;20945;-74
2022/03/24 13:37:43;;;;;;;14.60;11.00;;;;;;;;;;5064906;28;20494;-74
2022/03/24 13:40:11;;;;;;;18.47;11.57;;;;;;;;;;5066545;28;20438;-73
2022/03/24 13:42:38;;;;;;;16.67;12.20;;;;;;;;;;5067428;28;20414;-73
2022/03/24 13:45:04;;;;;;;11.70;10.30;;;;;;;;;;5065963;28;20449;-73
2022/03/24 13:47:31;;;;;;;18.27;12.10;;;;;;;;;;5064969;28;20528;-73
2022/03/24 13:49:58;;;;;;;18.27;12.60;;;;;;;;;;5063772;28;20449;-73
2022/03/24 13:52:46;;;;;;;17.30;11.87;;;;;;;;;;5068226;28;20413;-74
2022/03/24 13:55:16;;;;;;;16.77;12.20;;;;;;;;;;5063611;28;20540;-73
2022/03/24 13:57:52;;;;;;;17.53;11.77;;;;;;;;;;5065676;28;20449;-73
2022/03/24 14:00:24;;;;;;;10.87;9.73;;;;;;;;;;5065045;28;20945;-73
2022/03/24 14:03:02;;;;;;;19.97;13.17;;;;;;;;;;5066031;28;20526;-73
2022/03/24 14:05:47;;;;;;;15.30;12.07;;;;;;;;;;5066681;28;20420;-73
2022/03/24 14:08:33;;;;;;;16.03;11.13;;;;;;;;;;5067298;28;20512;-73
2022/03/24 14:10:59;;;;;;;13.60;10.43;;;;;;;;;;5048975;28;21016;-73
2022/03/24 14:13:35;;;;;;;12.90;9.33;;;;;;;;;;5069511;28;20572;-73
2022/03/24 14:16:13;;;;;;;16.77;11.63;;;;;;;;;;5071953;28;20433;-73
2022/03/24 14:18:40;;;;;;;16.23;11.73;;;;;;;;;;5069658;28;20445;-73
2022/03/24 14:21:13;;;;;;;13.60;11.90;;;;;;;;;;5068272;28;20433;-72
2022/03/24 14:23:40;;;;;;;16.57;10.80;;;;;;;;;;5064987;28;20487;-74
2022/03/24 14:26:10;;;;;;;17.33;12.40;;;;;;;;;;5070225;28;20937;-74
2022/03/24 14:28:44;;;;;;;17.53;13.13;;;;;;;;;;5048161;28;20512;-73
2022/03/24 14:31:13;;;;;;;14.90;10.70;;;;;;;;;;5070906;28;20836;-73
2022/03/24 14:33:46;;;;;;;19.37;10.97;;;;;;;;;;5053193;28;20484;-73